Weather at Mole Creek Airport

Public forecast

Using degrees Celsius for public forecast. Weather courtesy of forecast.io.

Closest aviation weather report (METAR) to Mole Creek Airport

Closest report is Launceston Airport, 39.6 nm (73.3 km) E. Retrieved 2021/11/28 17:00 UTC (24 minutes ago):

YMLT 281700Z AUTO 00000KT 9999 // NCD 08/06 Q1021 RF000/0000

Closest aviation forecast (TAF) to Mole Creek Airport

Closest forecast is Launceston Airport, 39.6 nm (73.3 km) E. Retrieved 2021/11/28 12:36 UTC (5 hours ago):

TAF YMLT 281115Z 2812/2912 34008KT CAVOK FM290200 33012KT CAVOK